createdAt,value
2019-01-23T00:00:46.530Z,28.9
2019-01-23T00:01:36.040Z,29
2019-01-23T00:02:25.790Z,28.9
2019-01-23T00:03:16.140Z,28.7
2019-01-23T00:04:05.630Z,28.3
2019-01-23T00:04:56.458Z,27.7
2019-01-23T00:05:46.580Z,27
2019-01-23T00:06:35.535Z,26.1
2019-01-23T00:07:26.462Z,25.1
2019-01-23T00:08:16.477Z,24.6
2019-01-23T00:09:06.250Z,24.6
2019-01-23T00:09:57.157Z,25.2
2019-01-23T00:10:47.212Z,25.8
2019-01-23T00:11:35.624Z,26.2
2019-01-23T00:12:27.354Z,26.5
2019-01-23T00:13:17.067Z,26.8
2019-01-23T00:14:06.912Z,27.1
2019-01-23T00:14:56.945Z,27.4
2019-01-23T00:15:47.009Z,27.8
2019-01-23T00:16:36.484Z,27.9
2019-01-23T00:17:26.262Z,28.3
2019-01-23T00:18:30.712Z,28.4
2019-01-23T00:19:06.432Z,28.7
2019-01-23T00:19:56.984Z,28.8
2019-01-23T00:20:47.361Z,29
2019-01-23T00:21:37.654Z,29.2
2019-01-23T00:22:27.741Z,29.3
2019-01-23T00:23:17.216Z,29.5
2019-01-23T00:24:07.264Z,29.6
2019-01-23T00:24:57.059Z,29.6
2019-01-23T00:25:48.299Z,29.4
2019-01-23T00:26:36.333Z,29.3
2019-01-23T00:27:27.688Z,29.2
2019-01-23T00:28:17.900Z,29
2019-01-23T00:29:07.371Z,28.9
2019-01-23T00:29:57.941Z,28.8
2019-01-23T00:30:48.821Z,28.6
2019-01-23T00:31:38.073Z,28.4
2019-01-23T00:32:27.846Z,28.3
2019-01-23T00:33:17.896Z,28.2
2019-01-23T00:34:07.693Z,27.6
2019-01-23T00:34:58.030Z,26.7
2019-01-23T00:35:48.426Z,26.3
2019-01-23T00:36:38.475Z,25.9
2019-01-23T00:37:28.790Z,25.8
2019-01-23T00:38:20.321Z,25.9
2019-01-23T00:39:08.895Z,26.2
2019-01-23T00:40:13.323Z,26.6
2019-01-23T00:40:49.033Z,26.9
2019-01-23T00:41:38.507Z,27.1
2019-01-23T00:42:28.878Z,27.4
2019-01-23T00:43:18.613Z,27.7
2019-01-23T00:44:09.555Z,27.9
2019-01-23T00:44:58.998Z,28.2
2019-01-23T00:45:49.090Z,28.4
2019-01-23T00:46:37.188Z,28.6
2019-01-23T00:47:29.185Z,28.8
2019-01-23T00:48:19.800Z,28.9
2019-01-23T00:49:09.068Z,29.1
2019-01-23T00:49:59.319Z,29.3
2019-01-23T00:50:49.810Z,29.4
2019-01-23T00:51:39.197Z,29.6
2019-01-23T00:52:30.327Z,29.6
2019-01-23T00:53:19.583Z,29.4
2019-01-23T00:54:09.362Z,29.3
2019-01-23T00:54:59.660Z,29.2
2019-01-23T00:55:48.974Z,29.1
2019-01-23T00:56:39.540Z,28.9
2019-01-23T00:57:29.569Z,28.8
2019-01-23T00:58:20.207Z,28.6
2019-01-23T00:59:09.684Z,28.5
2019-01-23T01:00:00.299Z,28.3
2019-01-23T01:00:50.391Z,28.2
2019-01-23T01:01:39.912Z,27.1
2019-01-23T01:02:30.286Z,26.6
2019-01-23T01:03:20.812Z,26.3
2019-01-23T01:04:11.119Z,25.9
2019-01-23T01:04:59.538Z,25.8
2019-01-23T01:05:49.889Z,25.8
2019-01-23T01:06:39.986Z,26.1
2019-01-23T01:07:30.829Z,26.4
2019-01-23T01:08:20.617Z,26.7
2019-01-23T01:09:10.670Z,27
2019-01-23T01:09:59.612Z,27.3
2019-01-23T01:10:50.326Z,27.6
2019-01-23T01:11:41.161Z,27.9
2019-01-23T01:12:30.721Z,28.1
2019-01-23T01:13:21.018Z,28.3
2019-01-23T01:14:11.071Z,28.5
2019-01-23T01:15:16.321Z,28.7
2019-01-23T01:15:51.158Z,28.9
2019-01-23T01:16:41.215Z,29.1
2019-01-23T01:17:30.472Z,29.3
2019-01-23T01:18:20.303Z,29.4
2019-01-23T01:19:11.404Z,29.5
2019-01-23T01:20:01.152Z,29.6
2019-01-23T01:20:51.523Z,29.5
2019-01-23T01:21:40.644Z,29.4
2019-01-23T01:22:31.100Z,29.3
2019-01-23T01:23:21.718Z,29.1
2019-01-23T01:24:10.653Z,28.9
2019-01-23T01:25:01.565Z,28.8
2019-01-23T01:25:52.160Z,28.6
2019-01-23T01:26:41.945Z,28.5
2019-01-23T01:27:31.125Z,28.4
2019-01-23T01:28:21.792Z,28.3
2019-01-23T01:29:11.552Z,27.7
2019-01-23T01:30:00.945Z,26.9
2019-01-23T01:30:51.480Z,26.4
2019-01-23T01:31:42.299Z,26.1
2019-01-23T01:32:31.821Z,25.8
2019-01-23T01:33:20.532Z,25.8
2019-01-23T01:34:11.947Z,26
2019-01-23T01:35:01.970Z,26.3
2019-01-23T01:35:51.452Z,26.6
2019-01-23T01:36:42.442Z,26.9
2019-01-23T01:37:32.444Z,27.2
2019-01-23T01:38:21.609Z,27.5
2019-01-23T01:39:11.977Z,27.8
2019-01-23T01:40:02.179Z,28
2019-01-23T01:40:52.619Z,28.3
2019-01-23T01:41:42.514Z,28.4
2019-01-23T01:42:31.369Z,28.6
2019-01-23T01:43:22.801Z,28.8
2019-01-23T01:44:12.849Z,29
2019-01-23T01:45:02.424Z,29.1
2019-01-23T01:45:52.459Z,29.3
2019-01-23T01:46:41.916Z,29.4
2019-01-23T01:47:33.629Z,29.6
2019-01-23T01:48:22.609Z,29.6
2019-01-23T01:49:12.946Z,29.4
2019-01-23T01:50:03.076Z,29.3
2019-01-23T01:50:53.063Z,29.1
2019-01-23T01:51:43.721Z,29
2019-01-23T01:52:32.599Z,28.9
2019-01-23T01:53:22.978Z,28.8
2019-01-23T01:54:13.005Z,28.6
2019-01-23T01:55:03.038Z,28.4
2019-01-23T01:55:53.678Z,28.3
2019-01-23T01:56:43.998Z,28.2
2019-01-23T01:57:33.505Z,27.3
2019-01-23T01:58:23.740Z,26.6
2019-01-23T01:59:13.385Z,26.3
2019-01-23T02:00:04.043Z,25.9
2019-01-23T02:00:53.940Z,25.8
2019-01-23T02:01:44.544Z,25.9
2019-01-23T02:02:34.933Z,26.1
2019-01-23T02:03:24.895Z,26.4
2019-01-23T02:04:15.228Z,26.8
2019-01-23T02:05:05.327Z,27
2019-01-23T02:05:54.840Z,27.3
2019-01-23T02:06:44.353Z,27.6
2019-01-23T02:08:24.200Z,27.9
2019-01-23T02:09:14.842Z,27.8
2019-01-23T02:10:05.200Z,27.3
2019-01-23T02:10:55.195Z,26.6
2019-01-23T02:11:45.579Z,25.9
2019-01-23T02:12:34.724Z,25.1
2019-01-23T02:13:25.352Z,24.2
2019-01-23T02:14:15.405Z,23.9
2019-01-23T02:15:04.657Z,24
2019-01-23T02:15:55.560Z,24.6
2019-01-23T02:16:45.057Z,25.3
2019-01-23T02:17:35.932Z,25.8
2019-01-23T02:18:25.419Z,26.2
2019-01-23T02:19:14.637Z,26.5
2019-01-23T02:20:05.584Z,26.8
2019-01-23T02:20:55.864Z,27.1
2019-01-23T02:21:46.504Z,27.4
2019-01-23T02:22:35.701Z,27.7
2019-01-23T02:23:26.311Z,28
2019-01-23T02:24:14.531Z,28.2
2019-01-23T02:25:05.049Z,28.4
2019-01-23T02:25:56.488Z,28.6
2019-01-23T02:26:45.478Z,28.8
2019-01-23T02:27:35.759Z,29
2019-01-23T02:28:25.861Z,29.2
2019-01-23T02:29:18.773Z,29.3
2019-01-23T02:30:06.162Z,29.4
2019-01-23T02:30:56.091Z,29.6
2019-01-23T02:31:46.423Z,29.6
2019-01-23T02:32:35.643Z,29.4
2019-01-23T02:33:26.814Z,29.3
2019-01-23T02:34:15.518Z,29.1
2019-01-23T02:35:05.435Z,29
2019-01-23T02:35:56.771Z,28.9
2019-01-23T02:36:46.803Z,28.8
2019-01-23T02:37:35.843Z,28.6
2019-01-23T02:38:27.166Z,28.4
2019-01-23T02:39:16.129Z,28.3
2019-01-23T02:40:07.053Z,28.2
2019-01-23T02:40:55.700Z,27.6
2019-01-23T02:41:46.608Z,26.8
2019-01-23T02:42:37.198Z,26.2
2019-01-23T02:43:26.687Z,25.9
2019-01-23T02:44:16.020Z,25.9
2019-01-23T02:45:07.151Z,26.1
2019-01-23T02:45:56.640Z,26.3
2019-01-23T02:46:46.919Z,26.6
2019-01-23T02:47:36.440Z,26.9
2019-01-23T02:48:27.535Z,27.2
2019-01-23T02:49:17.979Z,27.5
2019-01-23T02:50:56.713Z,28
2019-01-23T02:51:47.769Z,28.3
2019-01-23T02:52:38.236Z,28.5
2019-01-23T02:53:27.669Z,28.7
2019-01-23T02:54:17.972Z,28.9
2019-01-23T02:55:07.705Z,29
2019-01-23T02:55:57.562Z,29.2
2019-01-23T02:56:46.846Z,29.4
2019-01-23T02:57:37.964Z,29.5
2019-01-23T02:58:27.727Z,29.6
2019-01-23T02:59:25.121Z,29.5
2019-01-23T03:00:07.579Z,29.4
2019-01-23T03:00:58.699Z,29.3
2019-01-23T03:01:46.906Z,29.1
2019-01-23T03:02:38.057Z,28.9
2019-01-23T03:03:28.599Z,28.8
2019-01-23T03:04:18.364Z,28.7
2019-01-23T03:05:07.640Z,28.6
2019-01-23T03:08:41.791Z,27
2019-01-23T03:09:31.138Z,26.4
2019-01-23T03:10:21.894Z,26
2019-01-23T03:11:11.785Z,25.9
2019-01-23T03:12:01.819Z,25.9
2019-01-23T03:12:52.244Z,26.1
2019-01-23T03:13:41.903Z,26.4
2019-01-23T03:14:31.988Z,26.7
2019-01-23T03:15:21.580Z,27
2019-01-23T03:16:12.176Z,27.3
2019-01-23T03:17:01.325Z,27.6
2019-01-23T03:18:42.295Z,28.1
2019-01-23T03:19:32.090Z,28.3
2019-01-23T03:20:21.513Z,28.5
2019-01-23T03:21:12.738Z,28.7
2019-01-23T03:22:02.221Z,28.9
2019-01-23T03:22:52.848Z,29
2019-01-23T03:23:42.635Z,29.2
2019-01-23T03:24:32.402Z,29.3
2019-01-23T03:25:23.229Z,29.5
2019-01-23T03:26:12.450Z,29.6
2019-01-23T03:27:03.036Z,29.5
2019-01-23T03:27:53.743Z,29.4
2019-01-23T03:28:43.440Z,29.3
2019-01-23T03:29:34.425Z,29.1
2019-01-23T03:30:24.133Z,29
2019-01-23T03:31:13.978Z,28.8
2019-01-23T03:32:04.249Z,28.7
2019-01-23T03:32:54.516Z,28.6
2019-01-23T03:33:43.269Z,28.4
2019-01-23T03:34:34.152Z,28.3
2019-01-23T03:35:23.665Z,28.1
2019-01-23T03:36:13.695Z,27.4
2019-01-23T03:37:03.529Z,26.6
2019-01-23T03:37:53.824Z,26.2
2019-01-23T03:38:43.585Z,25.9
2019-01-23T03:39:33.869Z,25.9
2019-01-23T03:40:24.074Z,26
2019-01-23T03:41:14.036Z,26.3
2019-01-23T03:42:04.599Z,26.6
2019-01-23T03:42:54.459Z,26.9
2019-01-23T03:43:44.237Z,27.2
2019-01-23T03:44:34.893Z,27.4
2019-01-23T03:45:24.439Z,27.7
2019-01-23T03:46:14.682Z,27.9
2019-01-23T03:47:04.436Z,28.1
2019-01-23T03:47:54.224Z,28.4
2019-01-23T03:48:44.076Z,28.5
2019-01-23T03:49:34.878Z,28.7
2019-01-23T03:50:25.248Z,28.9
2019-01-23T03:51:14.980Z,29
2019-01-23T03:52:05.096Z,29.1
2019-01-23T03:52:55.455Z,29.3
2019-01-23T03:53:45.174Z,29.4
2019-01-23T03:54:35.238Z,29.2
2019-01-23T03:55:25.320Z,28.9
2019-01-23T03:56:15.349Z,28.4
2019-01-23T03:57:55.453Z,27.1
2019-01-23T03:58:45.237Z,26.2
2019-01-23T03:59:41.685Z,25.2
2019-01-23T04:00:27.252Z,24.6
2019-01-23T04:01:16.021Z,24.6
2019-01-23T04:02:06.029Z,25.2
2019-01-23T04:02:55.656Z,25.7
2019-01-23T04:03:45.002Z,26.2
2019-01-23T04:04:35.080Z,26.5
2019-01-23T04:05:25.809Z,26.8
2019-01-23T04:06:16.260Z,27.1
2019-01-23T04:07:05.537Z,27.4
2019-01-23T04:07:55.592Z,27.8
2019-01-23T04:08:46.442Z,28
2019-01-23T04:09:36.242Z,28.3
2019-01-23T04:10:26.075Z,28.5
2019-01-23T04:11:16.042Z,28.8
2019-01-23T04:12:06.650Z,28.9
2019-01-23T04:12:55.967Z,29.1
2019-01-23T04:13:46.573Z,29.3
2019-01-23T04:14:36.015Z,29.4
2019-01-23T04:15:26.370Z,29.6
2019-01-23T04:16:16.094Z,29.6
2019-01-23T04:17:06.726Z,29.4
2019-01-23T04:17:56.542Z,29.3
2019-01-23T04:18:46.631Z,29.2
2019-01-23T04:19:36.927Z,29.1
2019-01-23T04:20:25.929Z,28.9
2019-01-23T04:21:16.444Z,28.8
2019-01-23T04:22:07.167Z,28.6
2019-01-23T04:22:56.882Z,28.5
2019-01-23T04:23:47.486Z,28.4
2019-01-23T04:24:37.544Z,28.2
2019-01-23T04:25:27.511Z,27.1
2019-01-23T04:26:16.102Z,26.6
2019-01-23T04:27:06.893Z,26.2
2019-01-23T04:27:56.934Z,25.9
2019-01-23T04:28:46.209Z,25.9
2019-01-23T04:29:44.910Z,25.9
2019-01-23T04:30:26.960Z,26.3
2019-01-23T04:31:18.611Z,26.6
2019-01-23T04:32:07.482Z,26.9
2019-01-23T04:32:57.714Z,27.1
2019-01-23T04:33:48.243Z,27.4
2019-01-23T04:34:37.105Z,27.7
2019-01-23T04:35:27.791Z,27.9
2019-01-23T04:36:17.770Z,28.2
2019-01-23T04:37:08.478Z,28.4
2019-01-23T04:37:57.729Z,28.6
2019-01-23T04:38:48.028Z,28.8
2019-01-23T04:39:38.341Z,28.9
2019-01-23T04:40:28.136Z,29.1
2019-01-23T04:41:18.110Z,29.3
2019-01-23T04:42:08.804Z,29.4
2019-01-23T04:42:58.264Z,29.4
2019-01-23T04:43:48.865Z,29.6
2019-01-23T04:44:38.602Z,29.5
2019-01-23T04:45:28.412Z,29.4
2019-01-23T04:46:18.485Z,29.3
2019-01-23T04:47:08.505Z,29.1
2019-01-23T04:47:58.886Z,29
2019-01-23T04:48:48.913Z,28.8
2019-01-23T04:49:40.748Z,28.7
2019-01-23T04:50:29.026Z,28.6
2019-01-23T04:51:18.781Z,28.4
2019-01-23T04:52:09.200Z,28.3
2019-01-23T04:52:59.192Z,27.8
2019-01-23T04:53:48.978Z,26.9
2019-01-23T04:54:39.294Z,26.4
2019-01-23T04:55:28.627Z,26
2019-01-23T04:56:19.135Z,25.8
2019-01-23T04:57:09.027Z,25.9
2019-01-23T04:57:59.324Z,26.1
2019-01-23T04:58:49.059Z,26.4
2019-01-23T04:59:40.440Z,26.7
2019-01-23T05:00:29.462Z,27
2019-01-23T05:01:20.284Z,27.2
2019-01-23T05:02:10.214Z,27.5
2019-01-23T05:03:00.576Z,27.7
2019-01-23T05:03:49.402Z,27.9
2019-01-23T05:04:39.701Z,28.2
2019-01-23T05:05:30.069Z,28.3
2019-01-23T05:06:20.153Z,28.5
2019-01-23T05:07:10.439Z,28.7
2019-01-23T05:07:59.718Z,28.8
2019-01-23T05:08:50.303Z,28.9
2019-01-23T05:09:40.038Z,29.1
2019-01-23T05:10:29.868Z,29.2
2019-01-23T05:11:19.945Z,29.3
2019-01-23T05:12:09.992Z,29.4
2019-01-23T05:13:00.329Z,29.5
2019-01-23T05:13:50.609Z,29.6
2019-01-23T05:14:41.380Z,29.4
2019-01-23T05:15:30.455Z,29.3
2019-01-23T05:16:21.059Z,29.2
2019-01-23T05:17:10.578Z,29.1
2019-01-23T05:18:01.267Z,28.9
2019-01-23T05:18:50.718Z,28.8
2019-01-23T05:19:41.011Z,28.6
2019-01-23T05:20:31.428Z,28.4
2019-01-23T05:21:22.758Z,28.3
2019-01-23T05:22:11.453Z,28.2
2019-01-23T05:23:01.249Z,27.9
2019-01-23T05:23:51.100Z,26.9
2019-01-23T05:24:41.448Z,26.4
2019-01-23T05:25:31.765Z,26
2019-01-23T05:26:21.188Z,25.8
2019-01-23T05:27:11.844Z,25.8
2019-01-23T05:28:01.585Z,26
2019-01-23T05:28:51.935Z,26.3
2019-01-23T05:29:41.972Z,26.6
2019-01-23T05:30:31.520Z,26.8
2019-01-23T05:31:21.565Z,27.1
2019-01-23T05:32:12.560Z,27.3
2019-01-23T05:33:02.265Z,27.6
2019-01-23T05:33:51.979Z,27.8
2019-01-23T05:34:42.150Z,27.9
2019-01-23T05:35:31.647Z,28.1
2019-01-23T05:36:22.437Z,28.3
2019-01-23T05:37:12.194Z,28.4
2019-01-23T05:38:01.710Z,28.6
2019-01-23T05:38:51.494Z,28.7
2019-01-23T05:39:42.093Z,28.8
2019-01-23T05:40:32.725Z,28.9
2019-01-23T05:41:21.973Z,28.9
2019-01-23T05:42:11.334Z,28.6
2019-01-23T05:43:01.645Z,28.3
2019-01-23T05:43:52.009Z,27.7
2019-01-23T05:44:41.289Z,27.1
2019-01-23T05:45:31.605Z,26.3
2019-01-23T05:46:21.579Z,25.3
2019-01-23T05:47:11.636Z,24.4
2019-01-23T05:48:02.712Z,24
2019-01-23T05:48:52.306Z,24.1
2019-01-23T05:49:42.124Z,24.7
2019-01-23T05:50:31.410Z,25.3
2019-01-23T05:51:22.207Z,25.8
2019-01-23T05:52:11.404Z,26.2
2019-01-23T05:53:02.340Z,26.4
2019-01-23T05:53:52.385Z,26.8
2019-01-23T05:54:41.391Z,27.1
2019-01-23T05:55:32.020Z,27.4
2019-01-23T05:56:21.795Z,27.7
2019-01-23T05:57:13.070Z,27.9
2019-01-23T05:58:02.976Z,28.1
2019-01-23T05:58:52.481Z,28.4
2019-01-23T05:59:41.987Z,28.5
2019-01-23T06:00:32.799Z,28.7
2019-01-23T06:01:22.320Z,28.9
2019-01-23T06:02:13.195Z,29
2019-01-23T06:03:02.251Z,29.2
2019-01-23T06:03:52.283Z,29.3
2019-01-23T06:06:40.223Z,29.6
2019-01-23T06:07:29.395Z,29.4
2019-01-23T06:08:20.932Z,29.3
2019-01-23T06:09:10.342Z,29.2
2019-01-23T06:10:01.448Z,29.1
2019-01-23T06:10:51.685Z,28.9
2019-01-23T06:11:41.446Z,28.8
2019-01-23T06:12:31.860Z,28.6
2019-01-23T06:13:21.210Z,28.4
2019-01-23T06:14:11.773Z,28.3
2019-01-23T06:15:01.796Z,28.1
2019-01-23T06:15:51.852Z,26.9
2019-01-23T06:16:41.621Z,26.4
2019-01-23T06:17:31.635Z,26.2
2019-01-23T06:18:22.200Z,25.8
2019-01-23T06:19:12.547Z,25.8
2019-01-23T06:20:02.642Z,25.9
2019-01-23T06:20:52.697Z,26.2
2019-01-23T06:21:42.462Z,26.5
2019-01-23T06:22:32.532Z,26.8
2019-01-23T06:23:21.730Z,27
2019-01-23T06:24:12.651Z,27.3
2019-01-23T06:25:02.464Z,27.6
2019-01-23T06:26:42.546Z,28.1
2019-01-23T06:27:32.629Z,28.3
2019-01-23T06:28:23.184Z,28.4
2019-01-23T06:29:11.849Z,28.6
2019-01-23T06:30:10.035Z,28.8
2019-01-23T06:30:52.534Z,28.9
2019-01-23T06:31:44.099Z,29
2019-01-23T06:32:32.394Z,29.2
2019-01-23T06:33:23.729Z,29.3
2019-01-23T06:34:13.551Z,29.4
2019-01-23T06:35:03.834Z,29.5
2019-01-23T06:35:53.869Z,29.6
2019-01-23T06:36:43.405Z,29.5
2019-01-23T06:37:33.788Z,29.4
2019-01-23T06:38:23.838Z,29.3
2019-01-23T06:39:13.331Z,29.1
2019-01-23T06:40:03.391Z,28.9
2019-01-23T06:40:53.170Z,28.8
2019-01-23T06:41:44.243Z,28.7
2019-01-23T06:42:34.033Z,28.6
2019-01-23T06:43:25.551Z,28.4
2019-01-23T06:44:13.930Z,28.3
2019-01-23T06:45:04.333Z,28.1
2019-01-23T06:45:53.365Z,26.9
2019-01-23T06:46:43.659Z,26.4
2019-01-23T06:47:33.685Z,26
2019-01-23T06:48:23.463Z,25.8
2019-01-23T06:49:14.545Z,25.9
2019-01-23T06:50:06.587Z,26.1
2019-01-23T06:50:53.640Z,26.4
2019-01-23T06:51:45.262Z,26.6
2019-01-23T06:52:33.465Z,26.9
2019-01-23T06:53:24.864Z,27.2
2019-01-23T06:54:14.110Z,27.4
2019-01-23T06:55:04.464Z,27.7
2019-01-23T06:55:55.527Z,27.9
2019-01-23T06:56:45.099Z,28.1
2019-01-23T06:57:34.855Z,28.3
2019-01-23T06:58:25.117Z,28.4
2019-01-23T06:59:15.457Z,28.6
2019-01-23T07:00:04.857Z,28.8
2019-01-23T07:00:55.077Z,28.9
2019-01-23T07:01:45.137Z,29.1
2019-01-23T07:02:35.667Z,29.2
2019-01-23T07:03:25.057Z,29.3
2019-01-23T07:04:15.212Z,29.4
2019-01-23T07:06:42.099Z,29.5
2019-01-23T07:07:31.942Z,29.3
2019-01-23T07:08:21.206Z,29.2
2019-01-23T07:09:12.036Z,29.1
2019-01-23T07:10:01.945Z,28.9
2019-01-23T07:10:51.646Z,28.8
2019-01-23T07:11:41.421Z,28.6
2019-01-23T07:12:32.245Z,28.5
2019-01-23T07:13:21.804Z,28.3
2019-01-23T07:14:12.086Z,28.2
2019-01-23T07:15:01.554Z,28.1
2019-01-23T07:15:52.493Z,27.1
2019-01-23T07:16:42.786Z,26.4
2019-01-23T07:17:32.571Z,26
2019-01-23T07:18:22.353Z,25.9
2019-01-23T07:19:12.228Z,25.9
2019-01-23T07:20:02.170Z,26.1
2019-01-23T07:20:52.311Z,26.4
2019-01-23T07:21:42.373Z,26.7
2019-01-23T07:22:31.606Z,26.9
2019-01-23T07:23:22.490Z,27.1
2019-01-23T07:24:12.531Z,27.4
2019-01-23T07:25:02.611Z,27.6
2019-01-23T07:26:41.910Z,28
2019-01-23T07:27:33.448Z,28.2
2019-01-23T07:28:22.772Z,28.3
2019-01-23T07:29:13.360Z,28.1
2019-01-23T07:30:03.240Z,27.8
2019-01-23T07:30:52.235Z,27.2
2019-01-23T07:31:43.105Z,26.6
2019-01-23T07:32:32.918Z,25.9
2019-01-23T07:33:23.213Z,25
2019-01-23T07:34:13.540Z,24.1
2019-01-23T07:35:03.703Z,23.6
2019-01-23T07:35:53.667Z,23.6
2019-01-23T07:36:43.473Z,24.1
2019-01-23T07:37:33.729Z,24.9
2019-01-23T07:38:23.512Z,25.4
2019-01-23T07:39:13.562Z,25.9
2019-01-23T07:40:04.114Z,26.3
2019-01-23T07:40:53.892Z,26.6
2019-01-23T07:41:44.494Z,26.9
2019-01-23T07:42:34.290Z,27.2
2019-01-23T07:43:24.322Z,27.5
2019-01-23T07:44:13.335Z,27.8
2019-01-23T07:45:03.964Z,28
2019-01-23T07:45:53.750Z,28.3
2019-01-23T07:46:44.069Z,28.4
2019-01-23T07:47:33.794Z,28.6
2019-01-23T07:48:25.979Z,28.8
2019-01-23T07:49:15.039Z,29
2019-01-23T07:50:04.799Z,29.2
2019-01-23T07:50:54.346Z,29.3
2019-01-23T07:51:45.209Z,29.4
2019-01-23T07:52:34.691Z,29.6
2019-01-23T07:53:24.726Z,29.5
2019-01-23T07:54:15.336Z,29.4
2019-01-23T07:55:05.514Z,29.3
2019-01-23T07:55:55.178Z,29.1
2019-01-23T07:56:45.555Z,29
2019-01-23T07:57:35.033Z,28.9
2019-01-23T07:58:25.401Z,28.7
2019-01-23T07:59:16.636Z,28.6
2019-01-23T08:00:05.299Z,28.4
2019-01-23T08:00:55.038Z,28.3
2019-01-23T08:01:45.307Z,28.1
2019-01-23T08:02:34.896Z,27.2
2019-01-23T08:03:24.986Z,26.5
2019-01-23T08:04:14.701Z,26
2019-01-23T08:05:05.120Z,25.9
2019-01-23T08:05:55.106Z,25.9
2019-01-23T08:06:45.414Z,26.1
2019-01-23T08:07:35.965Z,26.4
2019-01-23T08:08:25.568Z,26.7
2019-01-23T08:09:15.820Z,27
2019-01-23T08:10:06.048Z,27.3
2019-01-23T08:10:54.911Z,27.6
2019-01-23T08:12:36.310Z,28.1
2019-01-23T08:13:27.563Z,28.3
2019-01-23T08:14:15.695Z,28.5
2019-01-23T08:15:06.752Z,28.7
2019-01-23T08:15:55.972Z,28.9
2019-01-23T08:16:46.737Z,29
2019-01-23T08:17:41.785Z,29.2
2019-01-23T08:18:26.426Z,29.4
2019-01-23T08:19:17.029Z,29.5
2019-01-23T08:20:08.385Z,29.6
2019-01-23T08:20:57.219Z,29.6
2019-01-23T08:21:47.212Z,29.4
2019-01-23T08:22:36.686Z,29.3
2019-01-23T08:23:27.319Z,29.1
2019-01-23T08:24:17.114Z,28.9
2019-01-23T08:25:09.017Z,28.8
2019-01-23T08:25:57.552Z,28.6
2019-01-23T08:26:47.017Z,28.5
2019-01-23T08:27:37.616Z,28.3
2019-01-23T08:28:27.374Z,28.2
2019-01-23T08:29:17.711Z,27.7
2019-01-23T08:30:07.214Z,26.8
2019-01-23T08:30:57.541Z,26.3
2019-01-23T08:31:47.715Z,25.9
2019-01-23T08:32:37.975Z,25.9
2019-01-23T08:33:28.028Z,25.9
2019-01-23T08:34:17.299Z,26.1
2019-01-23T08:35:08.168Z,26.5
2019-01-23T08:35:57.381Z,26.8
2019-01-23T08:36:47.981Z,27.1
2019-01-23T08:37:38.318Z,27.4
2019-01-23T08:38:28.061Z,27.7
2019-01-23T08:39:17.870Z,27.9
2019-01-23T08:40:08.578Z,28.2
2019-01-23T08:40:57.946Z,28.4
2019-01-23T08:41:47.255Z,28.6
2019-01-23T08:42:38.131Z,28.9
2019-01-23T08:43:27.986Z,29
2019-01-23T08:44:18.461Z,29.2
2019-01-23T08:45:08.135Z,29.3
2019-01-23T08:45:58.310Z,29.5
2019-01-23T08:46:47.890Z,29.6
2019-01-23T08:47:37.848Z,29.6
2019-01-23T08:48:28.293Z,29.4
2019-01-23T08:49:18.292Z,29.3
2019-01-23T08:50:08.393Z,29.2
2019-01-23T08:50:59.198Z,29
2019-01-23T08:51:49.242Z,28.9
2019-01-23T08:52:38.843Z,28.8
2019-01-23T08:53:28.310Z,28.6
2019-01-23T08:54:19.423Z,28.4
2019-01-23T08:55:07.960Z,28.3
2019-01-23T08:56:02.587Z,28.2
2019-01-23T08:56:48.817Z,27.1
2019-01-23T08:57:39.168Z,26.5
2019-01-23T08:58:28.680Z,26.1
2019-01-23T08:59:19.002Z,25.8
2019-01-23T09:00:09.164Z,25.8
2019-01-23T09:00:58.827Z,25.9
2019-01-23T09:01:49.517Z,26.3
2019-01-23T09:02:39.217Z,26.6
2019-01-23T09:03:29.087Z,26.9
2019-01-23T09:04:19.074Z,27.3
2019-01-23T09:05:09.641Z,27.6
2019-01-23T09:06:49.284Z,28.1
2019-01-23T09:07:39.777Z,28.3
2019-01-23T09:08:29.631Z,28.6
2019-01-23T09:09:19.949Z,28.8
2019-01-23T09:10:09.951Z,28.9
2019-01-23T09:10:59.746Z,29.1
2019-01-23T09:11:50.159Z,29.3
2019-01-23T09:12:39.361Z,29.5
2019-01-23T09:13:30.201Z,29.6
2019-01-23T09:14:20.523Z,29.6
2019-01-23T09:15:09.794Z,29.4
2019-01-23T09:16:00.426Z,29.3
2019-01-23T09:16:50.057Z,29.1
2019-01-23T09:17:39.981Z,29
2019-01-23T09:18:30.081Z,28.9
2019-01-23T09:19:20.093Z,28.7
2019-01-23T09:20:10.369Z,28.6
2019-01-23T09:21:00.258Z,28.4
2019-01-23T09:21:50.353Z,28.3
2019-01-23T09:22:40.986Z,28.1
2019-01-23T09:23:30.911Z,27.4
2019-01-23T09:24:21.525Z,26.5
2019-01-23T09:25:11.528Z,26.3
2019-01-23T09:26:01.296Z,26.3
2019-01-23T09:26:51.363Z,26.4
2019-01-23T09:27:40.475Z,26.6
2019-01-23T09:28:31.473Z,27
2019-01-23T09:29:21.265Z,27.3
2019-01-23T09:30:11.393Z,27.6
2019-01-23T09:31:51.480Z,28.1
2019-01-23T09:32:40.838Z,28.4
2019-01-23T09:33:31.334Z,28.6
2019-01-23T09:34:21.398Z,28.8
2019-01-23T09:35:11.248Z,29
2019-01-23T09:36:01.502Z,29.3
2019-01-23T09:36:52.069Z,29.4
2019-01-23T09:37:41.615Z,29.6
2019-01-23T09:38:31.707Z,29.6
2019-01-23T09:39:21.729Z,29.5
2019-01-23T09:40:12.048Z,29.4
2019-01-23T09:41:02.083Z,29.3
2019-01-23T09:41:51.945Z,29.1
2019-01-23T09:42:42.462Z,28.9
2019-01-23T09:43:31.771Z,28.8
2019-01-23T09:44:22.359Z,28.7
2019-01-23T09:45:11.894Z,28.5
2019-01-23T09:46:02.474Z,28.4
2019-01-23T09:46:52.062Z,28.3
2019-01-23T09:47:41.823Z,27.1
2019-01-23T09:48:31.324Z,26.4
2019-01-23T09:49:22.146Z,26.1
2019-01-23T09:50:12.759Z,26.3
2019-01-23T09:51:02.816Z,26.3
2019-01-23T09:51:52.906Z,26.6
2019-01-23T09:52:42.353Z,26.9
2019-01-23T09:53:33.163Z,27.2
2019-01-23T09:54:22.766Z,27.5
2019-01-23T09:56:02.891Z,28.1
2019-01-23T09:56:52.180Z,28.3
2019-01-23T09:57:43.081Z,28.6
2019-01-23T09:58:33.818Z,28.8
2019-01-23T09:59:22.683Z,29
2019-01-23T10:00:13.483Z,29.2
2019-01-23T10:01:12.572Z,29.4
2019-01-23T10:01:53.551Z,29.6
2019-01-23T10:02:43.355Z,29.6
2019-01-23T10:03:33.650Z,29.4
2019-01-23T10:04:22.933Z,29.3
2019-01-23T10:05:13.020Z,29.2
2019-01-23T10:07:40.865Z,28.8
2019-01-23T10:08:30.560Z,28.6
2019-01-23T10:09:20.670Z,28.5
2019-01-23T10:10:11.015Z,28.3
2019-01-23T10:11:01.590Z,28.3
2019-01-23T10:11:51.087Z,26.9
2019-01-23T10:12:40.212Z,26.3
2019-01-23T10:13:31.490Z,26.1
2019-01-23T10:14:21.330Z,26.2
2019-01-23T10:15:11.590Z,26.3
2019-01-23T10:16:01.685Z,26.6
2019-01-23T10:16:52.544Z,26.9
2019-01-23T10:17:43.192Z,27.2
2019-01-23T10:18:31.537Z,27.5
2019-01-23T10:19:21.627Z,27.8
2019-01-23T10:20:11.103Z,28
2019-01-23T10:21:00.197Z,28.3
2019-01-23T10:21:52.127Z,28.6
2019-01-23T10:22:42.370Z,28.8
2019-01-23T10:23:31.394Z,29
2019-01-23T10:24:21.979Z,29.2
2019-01-23T10:25:11.762Z,29.4
2019-01-23T10:26:01.519Z,29.6
2019-01-23T10:26:52.473Z,29.6
2019-01-23T10:27:42.759Z,29.4
2019-01-23T10:28:33.271Z,29.3
2019-01-23T10:29:22.119Z,29.2
2019-01-23T10:30:12.676Z,29.1
2019-01-23T10:31:08.996Z,28.9
2019-01-23T10:31:52.220Z,28.8
2019-01-23T10:32:42.781Z,28.6
2019-01-23T10:33:33.201Z,28.5
2019-01-23T10:34:22.701Z,28.3
2019-01-23T10:35:13.249Z,28.2
2019-01-23T10:36:03.588Z,28
2019-01-23T10:36:53.085Z,26.8
2019-01-23T10:37:42.585Z,26.2
2019-01-23T10:38:33.228Z,26.2
2019-01-23T10:39:22.971Z,26.3
2019-01-23T10:40:13.343Z,26.4
2019-01-23T10:41:03.378Z,26.8
2019-01-23T10:41:52.350Z,27.1
2019-01-23T10:42:43.453Z,27.4
2019-01-23T10:43:32.211Z,27.7
2019-01-23T10:44:23.879Z,28
2019-01-23T10:45:13.358Z,28.3
2019-01-23T10:46:04.348Z,28.5
2019-01-23T10:46:53.732Z,28.8
2019-01-23T10:47:43.548Z,29
2019-01-23T10:48:40.833Z,29.2
2019-01-23T10:49:23.440Z,29.4
2019-01-23T10:50:13.713Z,29.6
2019-01-23T10:51:04.355Z,29.6
2019-01-23T10:51:54.130Z,29.5
2019-01-23T10:52:43.585Z,29.4
2019-01-23T10:53:34.199Z,29.3
2019-01-23T10:54:24.925Z,29.1
2019-01-23T10:55:14.082Z,28.9
2019-01-23T10:56:04.684Z,28.8
2019-01-23T10:56:54.465Z,28.7
2019-01-23T10:57:45.067Z,28.5
2019-01-23T10:58:33.532Z,28.4
2019-01-23T10:59:25.435Z,28.3
2019-01-23T11:00:14.947Z,28
2019-01-23T11:01:05.579Z,26.8
2019-01-23T11:01:54.337Z,26.1
2019-01-23T11:02:44.367Z,26.1
2019-01-23T11:03:34.645Z,26.2
2019-01-23T11:04:25.639Z,26.4
2019-01-23T11:05:15.152Z,26.7
2019-01-23T11:06:05.079Z,27.1
2019-01-23T11:06:54.596Z,27.4
2019-01-23T11:07:45.454Z,27.6
2019-01-23T11:08:35.211Z,27.9
2019-01-23T11:09:27.378Z,28.3
2019-01-23T11:10:15.399Z,28.5
2019-01-23T11:11:06.046Z,28.7
2019-01-23T11:11:55.862Z,28.9
2019-01-23T11:12:45.044Z,29.1
2019-01-23T11:13:34.479Z,29.3
2019-01-23T11:14:25.424Z,29.5
2019-01-23T11:15:15.512Z,29.6
2019-01-23T11:16:07.049Z,29.5
2019-01-23T11:16:55.821Z,29.4
2019-01-23T11:17:46.213Z,29.3
2019-01-23T11:18:35.976Z,29.1
2019-01-23T11:19:26.999Z,28.9
2019-01-23T11:20:16.608Z,28.8
2019-01-23T11:21:06.406Z,28.6
2019-01-23T11:21:56.515Z,28.5
2019-01-23T11:22:46.839Z,28.4
2019-01-23T11:23:36.330Z,28.3
2019-01-23T11:24:26.401Z,27.1
2019-01-23T11:25:16.199Z,26.4
2019-01-23T11:26:05.534Z,26.1